sensor_id;sensor_type;location;lat;lon;timestamp;pressure;altitude;pressure_sealevel;temperature;humidity
76108;BME280;64834;52.516;10.528;2023-02-28T00:02:24;102603.09;;;-2.34;87.55
76108;BME280;64834;52.516;10.528;2023-02-28T00:04:49;102602.03;;;-2.11;86.89
76108;BME280;64834;52.516;10.528;2023-02-28T00:07:18;102610.34;;;-2.06;86.16
76108;BME280;64834;52.516;10.528;2023-02-28T00:09:43;102609.22;;;-1.96;86.56
76108;BME280;64834;52.516;10.528;2023-02-28T00:12:08;102607.13;;;-2.24;86.43
76108;BME280;64834;52.516;10.528;2023-02-28T00:14:36;102607.53;;;-2.52;87.85
76108;BME280;64834;52.516;10.528;2023-02-28T00:17:01;102596.06;;;-2.48;88.37
76108;BME280;64834;52.516;10.528;2023-02-28T00:19:26;102602.53;;;-2.57;88.46
76108;BME280;64834;52.516;10.528;2023-02-28T00:21:52;102592.09;;;-2.64;88.59
76108;BME280;64834;52.516;10.528;2023-02-28T00:24:17;102601.69;;;-2.63;88.09
76108;BME280;64834;52.516;10.528;2023-02-28T00:26:42;102592.69;;;-2.73;88.31
76108;BME280;64834;52.516;10.528;2023-02-28T00:29:07;102599.47;;;-2.73;88.62
76108;BME280;64834;52.516;10.528;2023-02-28T00:31:33;102603.94;;;-2.78;87.91
76108;BME280;64834;52.516;10.528;2023-02-28T00:33:58;102591.88;;;-2.97;88.79
76108;BME280;64834;52.516;10.528;2023-02-28T00:36:23;102596.13;;;-3.03;89.36
76108;BME280;64834;52.516;10.528;2023-02-28T00:38:49;102601.41;;;-2.96;89.86
76108;BME280;64834;52.516;10.528;2023-02-28T00:41:14;102600.44;;;-2.60;87.67
76108;BME280;64834;52.516;10.528;2023-02-28T00:43:40;102599.59;;;-2.84;88.24
76108;BME280;64834;52.516;10.528;2023-02-28T00:46:06;102592.41;;;-2.68;87.28
76108;BME280;64834;52.516;10.528;2023-02-28T00:48:31;102592.06;;;-2.46;86.40
76108;BME280;64834;52.516;10.528;2023-02-28T00:50:57;102600.81;;;-2.69;86.99
76108;BME280;64834;52.516;10.528;2023-02-28T00:53:22;102602.66;;;-2.68;88.46
76108;BME280;64834;52.516;10.528;2023-02-28T00:55:49;102601.69;;;-2.82;88.48
76108;BME280;64834;52.516;10.528;2023-02-28T00:58:14;102601.25;;;-2.85;88.63
76108;BME280;64834;52.516;10.528;2023-02-28T01:00:40;102596.91;;;-2.91;88.47
76108;BME280;64834;52.516;10.528;2023-02-28T01:03:05;102597.19;;;-2.95;88.89
76108;BME280;64834;52.516;10.528;2023-02-28T01:05:30;102598.47;;;-2.86;88.57
76108;BME280;64834;52.516;10.528;2023-02-28T01:07:55;102600.91;;;-2.93;89.40
76108;BME280;64834;52.516;10.528;2023-02-28T01:10:21;102602.94;;;-2.73;88.12
76108;BME280;64834;52.516;10.528;2023-02-28T01:12:46;102596.06;;;-2.79;88.70
76108;BME280;64834;52.516;10.528;2023-02-28T01:15:12;102595.13;;;-2.80;89.34
76108;BME280;64834;52.516;10.528;2023-02-28T01:17:37;102597.28;;;-3.01;89.49
76108;BME280;64834;52.516;10.528;2023-02-28T01:20:03;102596.00;;;-3.10;89.91
76108;BME280;64834;52.516;10.528;2023-02-28T01:22:28;102604.59;;;-2.73;88.94
76108;BME280;64834;52.516;10.528;2023-02-28T01:24:53;102600.53;;;-3.02;88.99
76108;BME280;64834;52.516;10.528;2023-02-28T01:27:19;102590.09;;;-3.22;89.43
76108;BME280;64834;52.516;10.528;2023-02-28T01:29:44;102596.75;;;-3.35;90.80
76108;BME280;64834;52.516;10.528;2023-02-28T01:32:10;102593.28;;;-3.36;91.13
76108;BME280;64834;52.516;10.528;2023-02-28T01:34:35;102587.25;;;-3.18;91.11
76108;BME280;64834;52.516;10.528;2023-02-28T01:37:00;102600.31;;;-3.22;90.74
76108;BME280;64834;52.516;10.528;2023-02-28T01:39:26;102599.84;;;-3.01;90.21
76108;BME280;64834;52.516;10.528;2023-02-28T01:41:51;102598.41;;;-3.17;90.57
76108;BME280;64834;52.516;10.528;2023-02-28T01:47:20;102598.75;;;-3.27;91.48
76108;BME280;64834;52.516;10.528;2023-02-28T01:49:47;102594.34;;;-3.28;90.35
76108;BME280;64834;52.516;10.528;2023-02-28T01:52:14;102595.19;;;-3.40;90.89
76108;BME280;64834;52.516;10.528;2023-02-28T01:54:45;102595.13;;;-3.35;90.84
76108;BME280;64834;52.516;10.528;2023-02-28T01:57:18;102594.31;;;-3.46;91.79
76108;BME280;64834;52.516;10.528;2023-02-28T01:59:52;102585.78;;;-3.53;91.92
76108;BME280;64834;52.516;10.528;2023-02-28T02:02:21;102587.66;;;-3.51;92.02
76108;BME280;64834;52.516;10.528;2023-02-28T02:04:52;102584.13;;;-3.52;91.85
76108;BME280;64834;52.516;10.528;2023-02-28T02:07:19;102585.72;;;-3.47;91.96
76108;BME280;64834;52.516;10.528;2023-02-28T02:09:45;102585.88;;;-3.58;92.14
76108;BME280;64834;52.516;10.528;2023-02-28T02:12:25;102580.44;;;-3.54;92.31
76108;BME280;64834;52.516;10.528;2023-02-28T02:15:08;102571.69;;;-3.62;92.61
76108;BME280;64834;52.516;10.528;2023-02-28T02:17:45;102571.03;;;-3.66;93.08
76108;BME280;64834;52.516;10.528;2023-02-28T02:23:33;102580.22;;;-3.32;90.65
76108;BME280;64834;52.516;10.528;2023-02-28T02:26:35;102569.88;;;-3.44;90.23
76108;BME280;64834;52.516;10.528;2023-02-28T02:29:27;102565.31;;;-3.34;90.87
76108;BME280;64834;52.516;10.528;2023-02-28T02:34:43;102568.53;;;-3.30;88.81
76108;BME280;64834;52.516;10.528;2023-02-28T02:37:22;102565.56;;;-3.33;89.65
76108;BME280;64834;52.516;10.528;2023-02-28T02:40:03;102575.41;;;-3.41;90.74
76108;BME280;64834;52.516;10.528;2023-02-28T02:42:40;102568.16;;;-3.57;91.01
76108;BME280;64834;52.516;10.528;2023-02-28T02:45:32;102574.00;;;-3.58;91.91
76108;BME280;64834;52.516;10.528;2023-02-28T02:48:02;102575.50;;;-3.71;92.24
76108;BME280;64834;52.516;10.528;2023-02-28T02:50:36;102572.25;;;-3.70;92.19
76108;BME280;64834;52.516;10.528;2023-02-28T02:53:04;102570.38;;;-3.71;92.37
76108;BME280;64834;52.516;10.528;2023-02-28T02:55:32;102583.16;;;-3.71;92.93
76108;BME280;64834;52.516;10.528;2023-02-28T02:58:02;102577.53;;;-3.63;92.39
76108;BME280;64834;52.516;10.528;2023-02-28T03:00:42;102578.44;;;-3.62;92.39
76108;BME280;64834;52.516;10.528;2023-02-28T03:03:09;102576.00;;;-3.49;91.82
76108;BME280;64834;52.516;10.528;2023-02-28T03:05:44;102577.41;;;-3.51;92.44
76108;BME280;64834;52.516;10.528;2023-02-28T03:08:11;102580.13;;;-3.44;91.63
76108;BME280;64834;52.516;10.528;2023-02-28T03:10:42;102581.84;;;-3.32;91.64
76108;BME280;64834;52.516;10.528;2023-02-28T03:13:34;102580.06;;;-3.39;91.46
76108;BME280;64834;52.516;10.528;2023-02-28T03:18:49;102575.56;;;-3.34;91.18
76108;BME280;64834;52.516;10.528;2023-02-28T03:21:36;102579.16;;;-3.39;90.87
76108;BME280;64834;52.516;10.528;2023-02-28T03:24:09;102586.22;;;-3.49;91.05
76108;BME280;64834;52.516;10.528;2023-02-28T03:26:39;102580.19;;;-3.50;91.57
76108;BME280;64834;52.516;10.528;2023-02-28T03:29:16;102578.97;;;-3.46;91.42
76108;BME280;64834;52.516;10.528;2023-02-28T03:31:50;102572.91;;;-3.47;91.41
76108;BME280;64834;52.516;10.528;2023-02-28T03:34:24;102576.94;;;-3.31;91.29
76108;BME280;64834;52.516;10.528;2023-02-28T03:36:54;102584.75;;;-3.23;89.75
76108;BME280;64834;52.516;10.528;2023-02-28T03:39:27;102579.91;;;-3.28;90.29
76108;BME280;64834;52.516;10.528;2023-02-28T03:41:59;102581.06;;;-3.26;90.16
76108;BME280;64834;52.516;10.528;2023-02-28T03:44:32;102592.09;;;-3.14;89.21
76108;BME280;64834;52.516;10.528;2023-02-28T03:47:07;102582.19;;;-3.23;89.62
76108;BME280;64834;52.516;10.528;2023-02-28T03:49:42;102572.72;;;-3.48;90.39
76108;BME280;64834;52.516;10.528;2023-02-28T03:52:10;102576.75;;;-3.56;91.01
76108;BME280;64834;52.516;10.528;2023-02-28T03:54:42;102572.25;;;-3.70;91.98
76108;BME280;64834;52.516;10.528;2023-02-28T03:57:23;102574.97;;;-3.63;92.21
76108;BME280;64834;52.516;10.528;2023-02-28T03:59:59;102575.13;;;-3.56;91.96
76108;BME280;64834;52.516;10.528;2023-02-28T04:02:28;102576.75;;;-3.56;92.18
76108;BME280;64834;52.516;10.528;2023-02-28T04:04:54;102584.91;;;-3.77;92.29
76108;BME280;64834;52.516;10.528;2023-02-28T04:07:19;102594.13;;;-3.72;92.46
76108;BME280;64834;52.516;10.528;2023-02-28T04:09:44;102589.72;;;-3.73;92.43
76108;BME280;64834;52.516;10.528;2023-02-28T04:12:10;102589.50;;;-3.74;92.60
76108;BME280;64834;52.516;10.528;2023-02-28T04:14:35;102593.69;;;-3.75;92.62
76108;BME280;64834;52.516;10.528;2023-02-28T04:17:01;102582.13;;;-3.60;92.05
76108;BME280;64834;52.516;10.528;2023-02-28T04:19:26;102593.25;;;-3.54;92.09
76108;BME280;64834;52.516;10.528;2023-02-28T04:21:53;102591.91;;;-3.58;91.75
76108;BME280;64834;52.516;10.528;2023-02-28T04:24:21;102585.91;;;-3.64;91.96
76108;BME280;64834;52.516;10.528;2023-02-28T04:26:49;102593.25;;;-3.54;91.58
76108;BME280;64834;52.516;10.528;2023-02-28T04:29:20;102591.75;;;-3.46;91.51
76108;BME280;64834;52.516;10.528;2023-02-28T04:31:45;102597.66;;;-3.53;91.37
76108;BME280;64834;52.516;10.528;2023-02-28T04:34:11;102595.50;;;-3.68;92.09
76108;BME280;64834;52.516;10.528;2023-02-28T04:36:36;102595.00;;;-3.66;92.25
76108;BME280;64834;52.516;10.528;2023-02-28T04:39:02;102604.81;;;-3.69;91.95
76108;BME280;64834;52.516;10.528;2023-02-28T04:41:29;102601.16;;;-3.76;92.34
76108;BME280;64834;52.516;10.528;2023-02-28T04:43:54;102601.84;;;-3.77;92.22
76108;BME280;64834;52.516;10.528;2023-02-28T04:46:21;102608.44;;;-3.85;92.16
76108;BME280;64834;52.516;10.528;2023-02-28T04:48:46;102603.59;;;-3.89;92.66
76108;BME280;64834;52.516;10.528;2023-02-28T04:51:15;102599.47;;;-3.94;92.54
76108;BME280;64834;52.516;10.528;2023-02-28T04:53:41;102585.91;;;-3.88;92.34
76108;BME280;64834;52.516;10.528;2023-02-28T04:56:08;102597.06;;;-3.87;91.87
76108;BME280;64834;52.516;10.528;2023-02-28T04:58:36;102605.16;;;-3.84;91.60
76108;BME280;64834;52.516;10.528;2023-02-28T05:01:03;102595.69;;;-3.91;90.69
76108;BME280;64834;52.516;10.528;2023-02-28T05:03:29;102595.13;;;-3.59;88.87
76108;BME280;64834;52.516;10.528;2023-02-28T05:05:54;102599.38;;;-3.65;88.32
76108;BME280;64834;52.516;10.528;2023-02-28T05:08:20;102598.25;;;-3.91;88.94
76108;BME280;64834;52.516;10.528;2023-02-28T05:10:45;102589.22;;;-3.94;89.65
76108;BME280;64834;52.516;10.528;2023-02-28T05:13:13;102595.09;;;-4.01;89.88
76108;BME280;64834;52.516;10.528;2023-02-28T05:15:39;102601.44;;;-4.10;90.16
76108;BME280;64834;52.516;10.528;2023-02-28T05:18:04;102598.03;;;-4.22;90.02
76108;BME280;64834;52.516;10.528;2023-02-28T05:20:29;102599.22;;;-4.20;90.49
76108;BME280;64834;52.516;10.528;2023-02-28T05:23:02;102610.16;;;-4.21;89.93
76108;BME280;64834;52.516;10.528;2023-02-28T05:25:28;102605.97;;;-3.96;89.32
76108;BME280;64834;52.516;10.528;2023-02-28T05:27:53;102602.06;;;-4.00;87.51
76108;BME280;64834;52.516;10.528;2023-02-28T05:30:19;102595.19;;;-4.12;88.78
76108;BME280;64834;52.516;10.528;2023-02-28T05:32:50;102602.97;;;-4.29;89.64
76108;BME280;64834;52.516;10.528;2023-02-28T05:35:15;102610.81;;;-4.22;90.52
76108;BME280;64834;52.516;10.528;2023-02-28T05:37:41;102612.84;;;-4.08;89.13
76108;BME280;64834;52.516;10.528;2023-02-28T05:40:06;102603.66;;;-4.24;90.44
76108;BME280;64834;52.516;10.528;2023-02-28T05:42:35;102612.50;;;-4.28;90.99
76108;BME280;64834;52.516;10.528;2023-02-28T05:45:00;102609.91;;;-4.22;90.39
76108;BME280;64834;52.516;10.528;2023-02-28T05:47:26;102608.88;;;-4.41;90.04
76108;BME280;64834;52.516;10.528;2023-02-28T05:49:51;102617.41;;;-4.65;91.44
76108;BME280;64834;52.516;10.528;2023-02-28T05:52:16;102622.19;;;-4.49;92.03
76108;BME280;64834;52.516;10.528;2023-02-28T05:54:42;102622.59;;;-4.46;90.87
76108;BME280;64834;52.516;10.528;2023-02-28T05:57:07;102618.22;;;-4.53;91.00
76108;BME280;64834;52.516;10.528;2023-02-28T05:59:33;102625.50;;;-4.62;91.29
76108;BME280;64834;52.516;10.528;2023-02-28T06:01:58;102623.94;;;-4.72;91.35
76108;BME280;64834;52.516;10.528;2023-02-28T06:04:23;102617.69;;;-4.74;91.87
76108;BME280;64834;52.516;10.528;2023-02-28T06:06:49;102623.72;;;-4.79;92.15
76108;BME280;64834;52.516;10.528;2023-02-28T06:09:15;102620.88;;;-4.64;92.50
76108;BME280;64834;52.516;10.528;2023-02-28T06:11:41;102617.19;;;-4.72;91.85
76108;BME280;64834;52.516;10.528;2023-02-28T06:14:07;102625.84;;;-4.77;91.77
76108;BME280;64834;52.516;10.528;2023-02-28T06:16:33;102621.41;;;-4.78;91.17
76108;BME280;64834;52.516;10.528;2023-02-28T06:19:01;102624.44;;;-4.80;90.69
76108;BME280;64834;52.516;10.528;2023-02-28T06:21:27;102632.50;;;-4.72;90.55
76108;BME280;64834;52.516;10.528;2023-02-28T06:23:52;102627.41;;;-4.31;89.23
76108;BME280;64834;52.516;10.528;2023-02-28T06:26:18;102638.47;;;-4.19;87.55
76108;BME280;64834;52.516;10.528;2023-02-28T06:28:43;102632.13;;;-4.40;89.10
76108;BME280;64834;52.516;10.528;2023-02-28T06:31:11;102640.59;;;-4.57;89.56
76108;BME280;64834;52.516;10.528;2023-02-28T06:33:37;102641.56;;;-4.68;90.01
76108;BME280;64834;52.516;10.528;2023-02-28T06:36:04;102627.91;;;-4.80;90.53
76108;BME280;64834;52.516;10.528;2023-02-28T06:38:30;102633.50;;;-4.82;91.28
76108;BME280;64834;52.516;10.528;2023-02-28T06:40:57;102637.91;;;-4.76;90.98
76108;BME280;64834;52.516;10.528;2023-02-28T06:43:23;102638.50;;;-4.66;91.19
76108;BME280;64834;52.516;10.528;2023-02-28T06:45:48;102652.59;;;-4.45;91.10
76108;BME280;64834;52.516;10.528;2023-02-28T06:48:14;102639.69;;;-4.28;90.96
76108;BME280;64834;52.516;10.528;2023-02-28T06:50:39;102660.06;;;-4.17;90.34
76108;BME280;64834;52.516;10.528;2023-02-28T06:53:05;102654.16;;;-4.05;90.66
76108;BME280;64834;52.516;10.528;2023-02-28T06:55:30;102656.69;;;-3.70;89.95
76108;BME280;64834;52.516;10.528;2023-02-28T06:57:57;102648.44;;;-3.38;89.63
76108;BME280;64834;52.516;10.528;2023-02-28T07:00:22;102644.31;;;-3.01;88.01
76108;BME280;64834;52.516;10.528;2023-02-28T07:02:47;102652.53;;;-2.54;86.05
76108;BME280;64834;52.516;10.528;2023-02-28T07:05:13;102653.31;;;-1.29;82.42
76108;BME280;64834;52.516;10.528;2023-02-28T07:07:38;102649.09;;;0.29;74.79
76108;BME280;64834;52.516;10.528;2023-02-28T07:10:06;102656.56;;;1.08;69.68
76108;BME280;64834;52.516;10.528;2023-02-28T07:12:31;102663.72;;;0.70;70.33
76108;BME280;64834;52.516;10.528;2023-02-28T07:14:57;102659.69;;;0.45;71.56
76108;BME280;64834;52.516;10.528;2023-02-28T07:17:22;102658.81;;;0.51;71.90
76108;BME280;64834;52.516;10.528;2023-02-28T07:19:47;102663.31;;;0.67;71.55
76108;BME280;64834;52.516;10.528;2023-02-28T07:22:13;102670.09;;;0.93;71.56
76108;BME280;64834;52.516;10.528;2023-02-28T07:24:38;102671.44;;;1.04;71.07
76108;BME280;64834;52.516;10.528;2023-02-28T07:27:03;102660.38;;;0.64;70.79
76108;BME280;64834;52.516;10.528;2023-02-28T07:29:29;102667.19;;;0.63;71.84
76108;BME280;64834;52.516;10.528;2023-02-28T07:31:55;102662.19;;;0.58;71.85
76108;BME280;64834;52.516;10.528;2023-02-28T07:34:21;102670.91;;;0.72;72.94
76108;BME280;64834;52.516;10.528;2023-02-28T07:36:47;102667.63;;;0.46;72.57
76108;BME280;64834;52.516;10.528;2023-02-28T07:39:12;102667.38;;;0.65;72.46
76108;BME280;64834;52.516;10.528;2023-02-28T07:41:37;102662.50;;;0.53;72.57
76108;BME280;64834;52.516;10.528;2023-02-28T07:44:09;102666.13;;;0.75;72.56
76108;BME280;64834;52.516;10.528;2023-02-28T07:46:34;102669.03;;;1.05;72.11
76108;BME280;64834;52.516;10.528;2023-02-28T07:49:01;102680.63;;;0.95;71.55
76108;BME280;64834;52.516;10.528;2023-02-28T07:51:28;102681.63;;;1.17;72.08
76108;BME280;64834;52.516;10.528;2023-02-28T07:53:53;102674.28;;;0.86;72.45
76108;BME280;64834;52.516;10.528;2023-02-28T07:56:19;102684.66;;;1.00;72.55
76108;BME280;64834;52.516;10.528;2023-02-28T07:58:44;102677.81;;;1.34;72.12
76108;BME280;64834;52.516;10.528;2023-02-28T08:01:10;102680.13;;;1.12;72.33
76108;BME280;64834;52.516;10.528;2023-02-28T08:03:37;102687.34;;;1.21;72.09
76108;BME280;64834;52.516;10.528;2023-02-28T08:06:06;102682.03;;;1.20;72.12
76108;BME280;64834;52.516;10.528;2023-02-28T08:08:32;102686.41;;;1.14;72.11
76108;BME280;64834;52.516;10.528;2023-02-28T08:10:59;102675.84;;;1.05;72.70
76108;BME280;64834;52.516;10.528;2023-02-28T08:13:25;102679.38;;;1.13;73.48
76108;BME280;64834;52.516;10.528;2023-02-28T08:15:52;102679.00;;;1.10;72.89
76108;BME280;64834;52.516;10.528;2023-02-28T08:18:17;102675.50;;;1.02;74.40
76108;BME280;64834;52.516;10.528;2023-02-28T08:20:42;102676.47;;;1.17;73.95
76108;BME280;64834;52.516;10.528;2023-02-28T08:23:08;102681.59;;;1.10;73.99
76108;BME280;64834;52.516;10.528;2023-02-28T08:25:33;102683.00;;;1.00;73.94
76108;BME280;64834;52.516;10.528;2023-02-28T08:27:58;102685.84;;;1.16;73.88
76108;BME280;64834;52.516;10.528;2023-02-28T08:30:24;102684.97;;;1.23;73.26
76108;BME280;64834;52.516;10.528;2023-02-28T08:32:49;102677.53;;;1.12;73.06
76108;BME280;64834;52.516;10.528;2023-02-28T08:35:15;102681.44;;;1.15;74.00
76108;BME280;64834;52.516;10.528;2023-02-28T08:37:41;102677.09;;;1.43;74.20
76108;BME280;64834;52.516;10.528;2023-02-28T08:40:07;102680.59;;;1.36;73.90
76108;BME280;64834;52.516;10.528;2023-02-28T08:42:32;102675.75;;;1.25;73.17
76108;BME280;64834;52.516;10.528;2023-02-28T08:44:58;102677.34;;;1.58;72.93
76108;BME280;64834;52.516;10.528;2023-02-28T08:47:23;102677.94;;;1.70;72.29
76108;BME280;64834;52.516;10.528;2023-02-28T08:49:48;102680.09;;;1.60;73.08
76108;BME280;64834;52.516;10.528;2023-02-28T08:52:14;102676.63;;;1.74;73.33
76108;BME280;64834;52.516;10.528;2023-02-28T08:54:39;102683.13;;;1.92;72.24
76108;BME280;64834;52.516;10.528;2023-02-28T08:57:04;102678.69;;;2.05;72.41
76108;BME280;64834;52.516;10.528;2023-02-28T08:59:30;102685.16;;;2.15;71.08
76108;BME280;64834;52.516;10.528;2023-02-28T09:01:55;102682.38;;;2.07;70.50
76108;BME280;64834;52.516;10.528;2023-02-28T09:04:21;102671.69;;;2.18;70.24
76108;BME280;64834;52.516;10.528;2023-02-28T09:06:47;102685.16;;;2.23;71.67
76108;BME280;64834;52.516;10.528;2023-02-28T09:09:13;102685.16;;;2.15;70.59
76108;BME280;64834;52.516;10.528;2023-02-28T09:11:39;102682.19;;;2.12;71.30
76108;BME280;64834;52.516;10.528;2023-02-28T09:14:04;102683.69;;;2.03;71.77
76108;BME280;64834;52.516;10.528;2023-02-28T09:16:31;102683.31;;;2.07;72.06
76108;BME280;64834;52.516;10.528;2023-02-28T09:18:56;102688.09;;;2.11;72.61
76108;BME280;64834;52.516;10.528;2023-02-28T09:21:22;102689.19;;;1.92;72.53
76108;BME280;64834;52.516;10.528;2023-02-28T09:23:49;102682.03;;;1.97;73.42
76108;BME280;64834;52.516;10.528;2023-02-28T09:26:17;102678.16;;;2.36;72.02
76108;BME280;64834;52.516;10.528;2023-02-28T09:28:43;102685.34;;;2.31;71.13
76108;BME280;64834;52.516;10.528;2023-02-28T09:31:16;102683.69;;;2.39;70.54
76108;BME280;64834;52.516;10.528;2023-02-28T09:33:45;102686.09;;;2.52;70.17
76108;BME280;64834;52.516;10.528;2023-02-28T09:36:11;102689.03;;;2.48;71.41
76108;BME280;64834;52.516;10.528;2023-02-28T09:38:36;102689.56;;;2.45;71.54
76108;BME280;64834;52.516;10.528;2023-02-28T09:41:08;102685.50;;;2.54;71.23
76108;BME280;64834;52.516;10.528;2023-02-28T09:43:38;102683.69;;;2.46;71.55
76108;BME280;64834;52.516;10.528;2023-02-28T09:46:28;102683.84;;;2.62;70.74
76108;BME280;64834;52.516;10.528;2023-02-28T09:48:55;102684.00;;;2.63;69.52
76108;BME280;64834;52.516;10.528;2023-02-28T09:51:27;102686.38;;;2.90;67.80
76108;BME280;64834;52.516;10.528;2023-02-28T09:53:53;102682.16;;;3.28;67.59
76108;BME280;64834;52.516;10.528;2023-02-28T09:56:25;102678.47;;;3.26;65.15
76108;BME280;64834;52.516;10.528;2023-02-28T10:06:52;102676.19;;;3.73;61.66
76108;BME280;64834;52.516;10.528;2023-02-28T10:09:22;102680.94;;;4.07;61.20
76108;BME280;64834;52.516;10.528;2023-02-28T10:11:52;102678.41;;;4.46;59.65
76108;BME280;64834;52.516;10.528;2023-02-28T10:14:20;102678.50;;;4.55;59.47
76108;BME280;64834;52.516;10.528;2023-02-28T10:16:50;102673.63;;;4.58;57.70
76108;BME280;64834;52.516;10.528;2023-02-28T10:19:27;102672.94;;;4.36;58.74
76108;BME280;64834;52.516;10.528;2023-02-28T10:22:03;102674.81;;;4.53;58.65
76108;BME280;64834;52.516;10.528;2023-02-28T10:24:37;102682.53;;;4.37;60.65
76108;BME280;64834;52.516;10.528;2023-02-28T10:29:40;102689.06;;;4.72;56.57
76108;BME280;64834;52.516;10.528;2023-02-28T10:32:06;102693.16;;;5.02;57.33
76108;BME280;64834;52.516;10.528;2023-02-28T10:34:32;102687.31;;;5.11;55.96
76108;BME280;64834;52.516;10.528;2023-02-28T10:36:58;102691.19;;;4.99;53.49
76108;BME280;64834;52.516;10.528;2023-02-28T10:39:38;102682.22;;;5.04;55.01
76108;BME280;64834;52.516;10.528;2023-02-28T10:42:04;102684.97;;;4.90;55.02
76108;BME280;64834;52.516;10.528;2023-02-28T10:44:29;102688.00;;;4.86;56.21
76108;BME280;64834;52.516;10.528;2023-02-28T10:46:55;102682.63;;;5.32;55.96
76108;BME280;64834;52.516;10.528;2023-02-28T10:49:26;102677.47;;;5.40;53.57
76108;BME280;64834;52.516;10.528;2023-02-28T10:51:55;102684.31;;;5.16;52.14
76108;BME280;64834;52.516;10.528;2023-02-28T10:54:27;102677.44;;;4.84;52.48
76108;BME280;64834;52.516;10.528;2023-02-28T10:57:25;102676.66;;;4.54;52.80
76108;BME280;64834;52.516;10.528;2023-02-28T10:59:52;102669.97;;;4.33;53.79
76108;BME280;64834;52.516;10.528;2023-02-28T11:02:36;102674.50;;;4.04;53.09
76108;BME280;64834;52.516;10.528;2023-02-28T11:05:26;102671.72;;;3.79;53.97
76108;BME280;64834;52.516;10.528;2023-02-28T11:07:54;102666.84;;;3.83;53.36
76108;BME280;64834;52.516;10.528;2023-02-28T11:10:21;102668.47;;;3.89;52.36
76108;BME280;64834;52.516;10.528;2023-02-28T11:12:49;102667.56;;;3.66;53.13
76108;BME280;64834;52.516;10.528;2023-02-28T11:17:54;102661.22;;;3.71;51.15
76108;BME280;64834;52.516;10.528;2023-02-28T11:20:23;102658.59;;;3.78;51.09
76108;BME280;64834;52.516;10.528;2023-02-28T11:22:50;102666.16;;;3.76;50.91
76108;BME280;64834;52.516;10.528;2023-02-28T11:25:23;102668.91;;;3.55;50.13
76108;BME280;64834;52.516;10.528;2023-02-28T11:28:01;102654.66;;;3.59;49.27
76108;BME280;64834;52.516;10.528;2023-02-28T11:30:40;102656.00;;;3.48;48.81
76108;BME280;64834;52.516;10.528;2023-02-28T11:33:47;102654.59;;;3.66;50.29
76108;BME280;64834;52.516;10.528;2023-02-28T11:36:20;102653.63;;;3.95;49.71
76108;BME280;64834;52.516;10.528;2023-02-28T11:38:47;102648.06;;;4.22;50.72
76108;BME280;64834;52.516;10.528;2023-02-28T11:44:20;102657.28;;;4.66;51.90
76108;BME280;64834;52.516;10.528;2023-02-28T11:46:52;102655.50;;;4.74;52.61
76108;BME280;64834;52.516;10.528;2023-02-28T11:49:42;102645.53;;;4.54;52.30
76108;BME280;64834;52.516;10.528;2023-02-28T11:52:40;102645.72;;;4.55;52.52
76108;BME280;64834;52.516;10.528;2023-02-28T11:55:17;102656.47;;;4.36;52.34
76108;BME280;64834;52.516;10.528;2023-02-28T11:57:56;102643.25;;;4.02;52.71
76108;BME280;64834;52.516;10.528;2023-02-28T12:03:28;102647.66;;;3.81;52.97
76108;BME280;64834;52.516;10.528;2023-02-28T12:06:31;102641.56;;;3.80;54.40
76108;BME280;64834;52.516;10.528;2023-02-28T12:11:52;102638.31;;;3.67;55.71
76108;BME280;64834;52.516;10.528;2023-02-28T12:16:57;102624.06;;;3.93;54.58
76108;BME280;64834;52.516;10.528;2023-02-28T12:19:38;102617.34;;;4.02;54.70
76108;BME280;64834;52.516;10.528;2023-02-28T12:22:27;102624.22;;;4.18;53.49
76108;BME280;64834;52.516;10.528;2023-02-28T12:27:37;102618.75;;;4.30;53.77
76108;BME280;64834;52.516;10.528;2023-02-28T12:30:24;102608.66;;;4.56;54.12
76108;BME280;64834;52.516;10.528;2023-02-28T12:32:55;102612.09;;;4.48;52.99
76108;BME280;64834;52.516;10.528;2023-02-28T12:35:26;102608.91;;;4.67;53.10
76108;BME280;64834;52.516;10.528;2023-02-28T12:38:19;102597.94;;;4.69;51.32
76108;BME280;64834;52.516;10.528;2023-02-28T12:41:26;102596.28;;;4.70;50.26
76108;BME280;64834;52.516;10.528;2023-02-28T12:44:03;102598.06;;;4.78;51.64
76108;BME280;64834;52.516;10.528;2023-02-28T12:46:42;102596.13;;;4.68;52.42
76108;BME280;64834;52.516;10.528;2023-02-28T12:49:13;102575.88;;;4.57;52.56
76108;BME280;64834;52.516;10.528;2023-02-28T12:51:41;102572.19;;;4.71;52.50
76108;BME280;64834;52.516;10.528;2023-02-28T12:54:25;102563.03;;;4.90;51.68
76108;BME280;64834;52.516;10.528;2023-02-28T12:57:13;102558.63;;;4.89;51.55
76108;BME280;64834;52.516;10.528;2023-02-28T13:09:09;102543.03;;;5.05;50.81
76108;BME280;64834;52.516;10.528;2023-02-28T13:11:44;102546.47;;;5.37;51.13
76108;BME280;64834;52.516;10.528;2023-02-28T13:14:29;102540.75;;;5.32;50.40
76108;BME280;64834;52.516;10.528;2023-02-28T13:17:10;102535.53;;;5.24;51.48
76108;BME280;64834;52.516;10.528;2023-02-28T13:19:40;102548.72;;;5.34;50.33
76108;BME280;64834;52.516;10.528;2023-02-28T13:25:13;102538.16;;;5.32;50.36
76108;BME280;64834;52.516;10.528;2023-02-28T13:27:57;102547.59;;;5.23;49.62
76108;BME280;64834;52.516;10.528;2023-02-28T13:36:10;102539.63;;;5.46;49.54
76108;BME280;64834;52.516;10.528;2023-02-28T13:43:59;102556.19;;;5.31;48.78
76108;BME280;64834;52.516;10.528;2023-02-28T13:46:26;102550.47;;;5.42;49.23
76108;BME280;64834;52.516;10.528;2023-02-28T13:48:51;102549.03;;;5.61;48.23
76108;BME280;64834;52.516;10.528;2023-02-28T13:51:45;102548.28;;;5.38;48.03
76108;BME280;64834;52.516;10.528;2023-02-28T14:00:03;102535.34;;;5.47;47.74
76108;BME280;64834;52.516;10.528;2023-02-28T14:05:35;102531.84;;;5.46;47.64
76108;BME280;64834;52.516;10.528;2023-02-28T14:08:14;102535.31;;;5.38;47.79
76108;BME280;64834;52.516;10.528;2023-02-28T14:10:45;102529.19;;;5.37;48.47